createdAt,value
2022-11-06T00:01:16.757Z,49.00
2022-11-06T00:03:44.770Z,49.10
2022-11-06T00:06:31.295Z,49.80
2022-11-06T00:09:00.596Z,49.20
2022-11-06T00:11:28.526Z,49.30
2022-11-06T00:13:58.370Z,49.20
2022-11-06T00:16:26.463Z,49.20
2022-11-06T00:18:54.986Z,49.30
2022-11-06T00:21:24.272Z,49.30
2022-11-06T00:23:53.301Z,49.20
2022-11-06T00:26:22.278Z,49.30
2022-11-06T00:28:50.826Z,49.20
2022-11-06T00:31:21.370Z,49.30
2022-11-06T00:33:49.321Z,49.20
2022-11-06T00:36:18.167Z,49.10
2022-11-06T00:38:46.129Z,49.20
2022-11-06T00:41:16.053Z,49.30
2022-11-06T00:43:44.738Z,49.30
2022-11-06T00:46:13.482Z,49.20
2022-11-06T00:48:42.970Z,49.30
2022-11-06T00:51:14.534Z,49.20
2022-11-06T00:53:42.473Z,49.30
2022-11-06T00:56:11.964Z,49.30
2022-11-06T00:58:40.143Z,49.20
2022-11-06T01:01:10.978Z,49.20
2022-11-06T01:03:38.937Z,49.30
2022-11-06T01:06:10.166Z,49.20
2022-11-06T01:08:38.105Z,49.30
2022-11-06T01:11:10.745Z,49.20
2022-11-06T01:13:38.820Z,49.30
2022-11-06T01:16:07.618Z,49.30
2022-11-06T01:18:35.754Z,49.20
2022-11-06T01:21:05.776Z,49.20
2022-11-06T01:23:35.516Z,49.20
2022-11-06T01:26:04.902Z,49.10
2022-11-06T01:28:33.373Z,49.10
2022-11-06T01:31:03.783Z,49.10
2022-11-06T01:33:32.064Z,49.20
2022-11-06T01:36:00.089Z,49.20
2022-11-06T01:38:28.572Z,49.20
2022-11-06T01:40:58.049Z,49.10
2022-11-06T01:43:27.594Z,49.20
2022-11-06T01:45:55.961Z,49.20
2022-11-06T01:48:26.193Z,49.10
2022-11-06T01:50:56.426Z,49.10
2022-11-06T01:53:24.880Z,49.20
2022-11-06T01:55:54.773Z,49.20
2022-11-06T01:58:25.456Z,49.20
2022-11-06T02:00:53.359Z,49.20
2022-11-06T02:03:21.334Z,49.20
2022-11-06T02:05:49.290Z,49.10
2022-11-06T02:08:18.466Z,49.10
2022-11-06T02:10:46.393Z,49.10
2022-11-06T02:13:22.639Z,49.10
2022-11-06T02:15:54.683Z,49.10
2022-11-06T02:18:45.324Z,49.10
2022-11-06T02:21:32.530Z,49.10
2022-11-06T02:24:37.402Z,49.20
2022-11-06T02:27:11.374Z,49.20
2022-11-06T02:29:43.959Z,49.30
2022-11-06T02:32:13.163Z,49.30
2022-11-06T02:34:41.693Z,49.40
2022-11-06T02:37:11.356Z,49.30
2022-11-06T02:39:40.454Z,49.40
2022-11-06T02:42:09.757Z,49.30
2022-11-06T02:44:38.538Z,49.20
2022-11-06T02:47:07.491Z,49.40
2022-11-06T02:49:40.400Z,49.20
2022-11-06T02:52:11.356Z,49.20
2022-11-06T02:54:41.538Z,49.20
2022-11-06T02:57:14.582Z,49.20
2022-11-06T02:59:45.566Z,49.20
2022-11-06T03:02:16.656Z,49.20
2022-11-06T03:04:47.552Z,49.20
2022-11-06T03:07:17.647Z,49.30
2022-11-06T03:09:45.989Z,49.20
2022-11-06T03:12:21.610Z,49.30
2022-11-06T03:14:53.805Z,49.20
2022-11-06T03:17:23.102Z,49.20
2022-11-06T03:19:52.144Z,49.20
2022-11-06T03:22:24.271Z,49.20
2022-11-06T03:24:55.707Z,49.20
2022-11-06T03:27:29.031Z,49.40
2022-11-06T03:30:00.346Z,49.20
2022-11-06T03:32:29.295Z,49.20
2022-11-06T03:35:01.244Z,49.20
2022-11-06T03:37:31.078Z,49.10
2022-11-06T03:40:00.489Z,49.10
2022-11-06T03:42:30.848Z,49.20
2022-11-06T03:45:00.114Z,49.10
2022-11-06T03:47:29.847Z,49.10
2022-11-06T03:50:00.081Z,49.20
2022-11-06T03:52:30.361Z,49.10
2022-11-06T03:55:00.310Z,49.10
2022-11-06T03:57:32.255Z,49.10
2022-11-06T04:00:01.349Z,49.10
2022-11-06T04:02:29.964Z,49.00
2022-11-06T04:04:58.735Z,49.10
2022-11-06T04:07:28.273Z,49.10
2022-11-06T04:10:18.753Z,49.10
2022-11-06T04:13:05.763Z,49.20
2022-11-06T04:15:35.741Z,49.30
2022-11-06T04:18:03.714Z,49.30
2022-11-06T04:20:56.543Z,49.40
2022-11-06T04:23:28.893Z,49.30
2022-11-06T04:26:16.146Z,49.50
2022-11-06T04:28:50.763Z,49.40
2022-11-06T04:31:22.525Z,49.60
2022-11-06T04:33:53.238Z,49.40
2022-11-06T04:36:23.828Z,49.70
2022-11-06T04:38:54.680Z,49.70
2022-11-06T04:41:34.979Z,50.00
2022-11-06T04:44:06.451Z,49.80
2022-11-06T04:46:36.644Z,49.80
2022-11-06T04:49:05.241Z,49.80
2022-11-06T04:51:35.050Z,50.00
2022-11-06T04:54:03.052Z,50.00
2022-11-06T04:56:34.982Z,50.00
2022-11-06T04:59:05.607Z,50.10
2022-11-06T05:01:33.893Z,50.00
2022-11-06T05:04:02.360Z,50.00
2022-11-06T05:06:30.565Z,50.10
2022-11-06T05:08:59.562Z,50.10
2022-11-06T05:11:27.478Z,50.10
2022-11-06T05:13:55.846Z,50.80
2022-11-06T05:16:25.132Z,50.20
2022-11-06T05:18:53.650Z,50.10
2022-11-06T05:21:39.298Z,50.30
2022-11-06T05:24:08.224Z,50.20
2022-11-06T05:26:36.078Z,50.30
2022-11-06T05:29:04.402Z,50.40
2022-11-06T05:31:33.760Z,50.20
2022-11-06T05:34:01.864Z,50.40
2022-11-06T05:36:29.552Z,50.50
2022-11-06T05:38:57.999Z,50.50
2022-11-06T05:41:25.867Z,50.60
2022-11-06T05:43:54.136Z,50.60
2022-11-06T05:46:47.205Z,50.70
2022-11-06T05:49:12.960Z,50.60
2022-11-06T05:51:40.845Z,50.70
2022-11-06T05:54:08.855Z,50.80
2022-11-06T05:56:37.318Z,50.90
2022-11-06T05:59:05.431Z,50.80
2022-11-06T06:01:34.040Z,50.90
2022-11-06T06:04:02.132Z,50.90
2022-11-06T06:06:31.891Z,50.80
2022-11-06T06:08:59.816Z,51.00
2022-11-06T06:11:28.143Z,51.00
2022-11-06T06:13:56.125Z,51.00
2022-11-06T06:16:24.430Z,51.00
2022-11-06T06:18:52.360Z,51.00
2022-11-06T06:21:20.307Z,51.10
2022-11-06T06:23:50.243Z,51.00
2022-11-06T06:26:24.204Z,51.00
2022-11-06T06:28:52.763Z,51.00
2022-11-06T06:31:20.803Z,51.20
2022-11-06T06:33:48.811Z,51.10
2022-11-06T06:36:16.814Z,51.10
2022-11-06T06:38:44.940Z,51.10
2022-11-06T06:41:14.267Z,51.20
2022-11-06T06:43:42.675Z,51.30
2022-11-06T06:46:10.907Z,51.30
2022-11-06T06:48:39.365Z,51.20
2022-11-06T06:51:07.962Z,51.30
2022-11-06T06:53:36.505Z,51.30
2022-11-06T06:56:04.454Z,51.40
2022-11-06T06:58:34.233Z,51.40
2022-11-06T07:01:03.113Z,51.50
2022-11-06T07:03:31.571Z,52.00
2022-11-06T07:05:59.742Z,51.40
2022-11-06T07:08:27.998Z,51.40
2022-11-06T07:11:00.112Z,51.50
2022-11-06T07:13:34.425Z,51.20
2022-11-06T07:16:05.741Z,51.50
2022-11-06T07:18:34.329Z,51.40
2022-11-06T07:21:02.378Z,51.40
2022-11-06T07:23:30.868Z,51.40
2022-11-06T07:25:58.784Z,51.30
2022-11-06T07:28:27.156Z,51.30
2022-11-06T07:30:58.632Z,51.40
2022-11-06T07:33:27.978Z,51.30
2022-11-06T07:35:56.056Z,51.40
2022-11-06T07:38:23.811Z,51.30
2022-11-06T07:40:52.156Z,51.40
2022-11-06T07:43:20.204Z,51.30
2022-11-06T07:45:48.485Z,51.40
2022-11-06T07:48:16.729Z,51.60
2022-11-06T07:50:46.157Z,51.40
2022-11-06T07:53:14.443Z,51.30
2022-11-06T07:55:49.445Z,51.30
2022-11-06T07:58:17.453Z,51.20
2022-11-06T08:00:48.157Z,51.10
2022-11-06T08:03:16.174Z,51.10
2022-11-06T08:05:45.532Z,51.00
2022-11-06T08:08:13.810Z,51.00
2022-11-06T08:10:43.791Z,51.00
2022-11-06T08:13:11.725Z,51.10
2022-11-06T08:15:40.157Z,51.00
2022-11-06T08:18:08.301Z,51.00
2022-11-06T08:20:36.178Z,51.10
2022-11-06T08:23:06.578Z,51.00
2022-11-06T08:25:35.259Z,51.00
2022-11-06T08:28:03.514Z,51.10
2022-11-06T08:30:32.025Z,51.00
2022-11-06T08:33:04.763Z,51.10
2022-11-06T08:35:32.908Z,51.00
2022-11-06T08:38:01.083Z,50.80
2022-11-06T08:40:31.298Z,50.80
2022-11-06T08:43:02.449Z,50.90
2022-11-06T08:45:30.557Z,50.80
2022-11-06T08:48:02.522Z,50.50
2022-11-06T08:50:30.508Z,50.60
2022-11-06T08:52:58.577Z,50.40
2022-11-06T08:55:26.513Z,50.50
2022-11-06T08:57:57.528Z,50.50
2022-11-06T09:00:25.663Z,50.60
2022-11-06T09:02:58.689Z,50.50
2022-11-06T09:05:26.678Z,50.60
2022-11-06T09:07:54.742Z,50.40
2022-11-06T09:10:22.712Z,50.40
2022-11-06T09:12:51.015Z,50.50
2022-11-06T09:15:20.736Z,50.50
2022-11-06T09:17:49.730Z,50.40
2022-11-06T09:20:18.944Z,50.30
2022-11-06T09:22:47.303Z,50.50
2022-11-06T09:25:15.640Z,50.40
2022-11-06T09:27:44.578Z,50.40
2022-11-06T09:30:14.074Z,50.20
2022-11-06T09:32:48.352Z,50.20
2022-11-06T09:35:16.703Z,50.10
2022-11-06T09:37:44.763Z,50.00
2022-11-06T09:40:18.661Z,50.30
2022-11-06T09:42:55.544Z,50.30
2022-11-06T09:45:24.395Z,50.40
2022-11-06T09:47:55.968Z,50.40
2022-11-06T09:50:26.806Z,50.20
2022-11-06T09:52:55.725Z,50.20
2022-11-06T09:55:25.626Z,49.70
2022-11-06T09:57:55.506Z,49.90
2022-11-06T10:00:23.481Z,49.80
2022-11-06T10:02:53.347Z,50.10
2022-11-06T10:05:26.350Z,50.20
2022-11-06T10:07:55.271Z,50.10
2022-11-06T10:10:26.493Z,50.00
2022-11-06T10:13:03.623Z,50.10
2022-11-06T10:15:33.650Z,50.10
2022-11-06T10:18:07.967Z,49.90
2022-11-06T10:20:38.040Z,49.80
2022-11-06T10:23:06.976Z,49.80
2022-11-06T10:25:46.565Z,49.10
2022-11-06T10:28:22.902Z,48.80
2022-11-06T10:30:57.496Z,49.60
2022-11-06T10:33:32.610Z,49.60
2022-11-06T10:36:01.265Z,49.50
2022-11-06T10:38:31.680Z,49.10
2022-11-06T10:40:59.580Z,48.60
2022-11-06T10:43:31.378Z,49.00
2022-11-06T10:46:02.369Z,48.70
2022-11-06T10:48:40.011Z,47.80
2022-11-06T10:51:29.513Z,47.90
2022-11-06T10:54:03.409Z,48.00
2022-11-06T10:56:40.626Z,48.20
2022-11-06T10:59:08.924Z,48.10
2022-11-06T11:01:37.083Z,48.30
2022-11-06T11:04:06.959Z,47.60
2022-11-06T11:06:34.963Z,47.30
2022-11-06T11:09:03.031Z,47.10
2022-11-06T11:11:31.545Z,47.10
2022-11-06T11:14:16.220Z,47.30
2022-11-06T11:16:45.781Z,47.60
2022-11-06T11:19:28.096Z,46.50
2022-11-06T11:21:57.790Z,45.70
2022-11-06T11:24:25.803Z,45.40
2022-11-06T11:26:54.604Z,45.40
2022-11-06T11:29:26.249Z,45.50
2022-11-06T11:31:55.795Z,45.50
2022-11-06T11:34:26.223Z,45.60
2022-11-06T11:36:58.477Z,45.80
2022-11-06T11:39:29.186Z,45.80
2022-11-06T11:42:18.060Z,46.70
2022-11-06T11:44:45.912Z,46.10
2022-11-06T11:47:22.033Z,45.80
2022-11-06T11:49:51.701Z,45.40
2022-11-06T11:52:20.689Z,45.50
2022-11-06T11:54:49.885Z,45.60
2022-11-06T11:57:19.647Z,45.70
2022-11-06T11:59:48.797Z,46.50
2022-11-06T12:02:23.637Z,49.50
2022-11-06T12:04:56.051Z,51.00
2022-11-06T12:07:25.810Z,52.60
2022-11-06T12:09:54.094Z,53.00
2022-11-06T12:12:23.090Z,53.40
2022-11-06T12:15:06.075Z,54.00
2022-11-06T12:17:34.360Z,54.20
2022-11-06T12:20:04.772Z,54.30
2022-11-06T12:22:35.810Z,54.50
2022-11-06T12:25:05.879Z,54.80
2022-11-06T12:27:34.966Z,55.60
2022-11-06T12:30:08.062Z,55.30
2022-11-06T12:32:44.629Z,55.30
2022-11-06T12:35:18.847Z,55.30
2022-11-06T12:37:53.653Z,55.20
2022-11-06T12:40:25.335Z,55.10
2022-11-06T12:43:01.905Z,55.40
2022-11-06T12:45:37.807Z,55.50
2022-11-06T12:48:10.816Z,55.70
2022-11-06T12:50:41.423Z,55.80
2022-11-06T12:53:25.508Z,55.60
2022-11-06T12:55:56.801Z,55.90
2022-11-06T12:58:38.385Z,56.20
2022-11-06T13:01:08.692Z,56.20
2022-11-06T13:03:48.302Z,56.30
2022-11-06T13:06:20.341Z,56.40
2022-11-06T13:08:51.366Z,56.60
2022-11-06T13:11:25.324Z,56.70
2022-11-06T13:14:05.337Z,56.40
2022-11-06T13:16:37.399Z,56.60
2022-11-06T13:19:07.220Z,56.40
2022-11-06T13:21:40.562Z,56.10
2022-11-06T13:24:11.861Z,55.90
2022-11-06T13:26:41.551Z,55.80
2022-11-06T13:29:11.066Z,56.10
2022-11-06T13:31:40.938Z,56.00
2022-11-06T13:34:08.976Z,56.30
2022-11-06T13:36:39.041Z,56.30
2022-11-06T13:39:08.881Z,56.40
2022-11-06T13:41:40.377Z,56.60
2022-11-06T13:44:11.133Z,49.30
2022-11-06T13:46:41.040Z,50.10
2022-11-06T13:49:15.249Z,49.80
2022-11-06T13:51:47.980Z,52.40
2022-11-06T13:54:21.612Z,53.30
2022-11-06T13:57:08.848Z,53.90
2022-11-06T13:59:43.155Z,53.80
2022-11-06T14:02:23.392Z,53.80
2022-11-06T14:05:36.385Z,54.30
2022-11-06T14:08:06.344Z,54.80
2022-11-06T14:10:37.228Z,54.90
2022-11-06T14:13:05.601Z,55.10
2022-11-06T14:15:35.850Z,55.20
2022-11-06T14:18:03.613Z,56.80
2022-11-06T14:20:33.145Z,57.80
2022-11-06T14:23:38.467Z,56.10
2022-11-06T14:26:09.916Z,54.10
2022-11-06T14:28:38.754Z,52.80
2022-11-06T14:31:16.320Z,52.30
2022-11-06T14:34:00.045Z,51.80
2022-11-06T14:36:38.172Z,51.60
2022-11-06T14:39:11.761Z,51.40
2022-11-06T14:41:54.622Z,51.10
2022-11-06T14:44:39.650Z,51.00
2022-11-06T14:47:09.145Z,50.80
2022-11-06T14:49:40.736Z,50.90
2022-11-06T14:52:09.599Z,51.00
2022-11-06T14:54:40.282Z,50.70
2022-11-06T14:57:10.099Z,50.60
2022-11-06T14:59:38.759Z,50.40
2022-11-06T15:02:18.315Z,50.20
2022-11-06T15:04:48.989Z,50.30
2022-11-06T15:08:10.380Z,50.20
2022-11-06T15:10:55.273Z,50.00
2022-11-06T15:13:33.471Z,50.00
2022-11-06T15:16:12.491Z,50.20
2022-11-06T15:18:43.365Z,50.00
2022-11-06T15:21:11.816Z,50.30
2022-11-06T15:23:42.651Z,50.30
2022-11-06T15:26:18.276Z,50.20
2022-11-06T15:28:48.290Z,50.10
2022-11-06T15:31:17.556Z,50.10
2022-11-06T15:33:55.734Z,50.00
2022-11-06T15:36:23.942Z,50.00
2022-11-06T15:38:52.306Z,50.00
2022-11-06T15:41:21.093Z,50.50
2022-11-06T15:43:51.125Z,50.50
2022-11-06T15:46:24.401Z,49.80
2022-11-06T15:49:08.471Z,49.70
2022-11-06T15:51:39.164Z,49.80
2022-11-06T15:54:07.292Z,49.60
2022-11-06T15:56:35.953Z,49.60
2022-11-06T15:59:13.645Z,49.60
2022-11-06T16:01:41.891Z,49.50
2022-11-06T16:04:15.890Z,50.00
2022-11-06T16:06:44.259Z,49.30
2022-11-06T16:09:17.360Z,49.30
2022-11-06T16:11:45.781Z,49.10
2022-11-06T16:14:15.990Z,49.10
2022-11-06T16:16:45.831Z,49.00
2022-11-06T16:19:38.184Z,48.70
2022-11-06T16:22:08.042Z,48.70
2022-11-06T16:24:41.985Z,48.80
2022-11-06T16:27:10.023Z,48.60
2022-11-06T16:29:39.982Z,48.50
2022-11-06T16:32:09.477Z,48.60
2022-11-06T16:34:40.208Z,48.40
2022-11-06T16:37:08.921Z,48.90
2022-11-06T16:39:49.724Z,48.30
2022-11-06T16:42:26.853Z,48.20
2022-11-06T16:45:21.011Z,48.00
2022-11-06T16:48:31.655Z,48.10
2022-11-06T16:51:00.401Z,47.80
2022-11-06T16:53:29.492Z,47.80
2022-11-06T16:55:58.453Z,47.70
2022-11-06T16:58:26.260Z,47.70
2022-11-06T17:01:00.930Z,47.60
2022-11-06T17:03:30.678Z,47.40
2022-11-06T17:05:59.104Z,47.40
2022-11-06T17:08:28.763Z,47.40
2022-11-06T17:10:57.890Z,47.30
2022-11-06T17:13:27.188Z,47.20
2022-11-06T17:15:56.508Z,47.20
2022-11-06T17:18:33.757Z,47.20
2022-11-06T17:21:05.068Z,47.20
2022-11-06T17:23:33.743Z,47.10
2022-11-06T17:26:03.757Z,46.90
2022-11-06T17:28:31.986Z,47.00
2022-11-06T17:30:59.979Z,47.00
2022-11-06T17:33:29.927Z,47.00
2022-11-06T17:35:57.835Z,46.90
2022-11-06T17:38:26.322Z,46.90
2022-11-06T17:40:54.339Z,46.80
2022-11-06T17:43:22.234Z,46.80
2022-11-06T17:45:50.289Z,46.80
2022-11-06T17:48:18.867Z,46.70
2022-11-06T17:51:05.701Z,46.80
2022-11-06T17:53:34.275Z,46.60
2022-11-06T17:56:04.606Z,46.60
2022-11-06T17:58:32.449Z,46.50
2022-11-06T18:01:06.746Z,46.50
2022-11-06T18:03:36.708Z,46.40
2022-11-06T18:06:06.545Z,46.50
2022-11-06T18:08:35.208Z,46.40
2022-11-06T18:11:03.262Z,46.30
2022-11-06T18:13:31.387Z,46.30
2022-11-06T18:15:59.255Z,46.20
2022-11-06T18:18:27.613Z,46.20
2022-11-06T18:20:55.646Z,46.30
2022-11-06T18:23:25.485Z,46.20
2022-11-06T18:25:56.851Z,46.30
2022-11-06T18:28:24.926Z,46.40
2022-11-06T18:30:52.846Z,46.50
2022-11-06T18:33:21.358Z,46.40
2022-11-06T18:35:49.420Z,46.50
2022-11-06T18:38:17.500Z,46.60
2022-11-06T18:40:51.423Z,46.80
2022-11-06T18:43:19.875Z,46.90
2022-11-06T18:45:47.852Z,46.90
2022-11-06T18:48:20.744Z,47.00
2022-11-06T18:50:49.624Z,47.10
2022-11-06T18:53:17.580Z,47.20
2022-11-06T18:55:47.125Z,47.40
2022-11-06T18:58:15.929Z,47.40
2022-11-06T19:00:44.619Z,47.60
2022-11-06T19:03:12.927Z,47.80
2022-11-06T19:05:47.669Z,47.70
2022-11-06T19:08:15.997Z,47.90
2022-11-06T19:10:44.133Z,47.90
2022-11-06T19:13:13.235Z,47.90
2022-11-06T19:15:41.186Z,48.00
2022-11-06T19:18:09.990Z,48.10
2022-11-06T19:20:40.277Z,48.20
2022-11-06T19:23:08.416Z,48.30
2022-11-06T19:25:36.505Z,48.30
2022-11-06T19:28:04.695Z,48.40
2022-11-06T19:30:34.138Z,48.50
2022-11-06T19:33:02.152Z,48.60
2022-11-06T19:35:30.682Z,48.60
2022-11-06T19:37:58.775Z,48.70
2022-11-06T19:40:27.700Z,48.70
2022-11-06T19:42:55.651Z,48.70
2022-11-06T19:45:25.116Z,48.90
2022-11-06T19:47:54.661Z,48.80
2022-11-06T19:50:45.901Z,48.90
2022-11-06T19:53:11.639Z,48.90
2022-11-06T19:55:40.188Z,48.90
2022-11-06T19:58:08.608Z,49.00
2022-11-06T20:00:36.562Z,49.00
2022-11-06T20:03:06.449Z,48.80
2022-11-06T20:05:34.529Z,49.20
2022-11-06T20:08:02.547Z,49.00
2022-11-06T20:10:30.460Z,49.10
2022-11-06T20:12:58.479Z,49.20
2022-11-06T20:15:26.422Z,49.20
2022-11-06T20:17:54.418Z,49.20
2022-11-06T20:20:23.839Z,49.30
2022-11-06T20:22:51.923Z,49.20
2022-11-06T20:25:20.020Z,49.40
2022-11-06T20:27:47.919Z,48.90
2022-11-06T20:30:16.619Z,49.20
2022-11-06T20:32:45.261Z,49.20
2022-11-06T20:35:16.756Z,49.40
2022-11-06T20:37:47.109Z,49.30
2022-11-06T20:40:15.555Z,49.40
2022-11-06T20:42:43.623Z,49.40
2022-11-06T20:45:11.699Z,49.30
2022-11-06T20:47:39.809Z,49.40
2022-11-06T20:50:08.460Z,49.40
2022-11-06T20:52:36.418Z,49.30
2022-11-06T20:55:06.373Z,49.30
2022-11-06T20:57:34.449Z,49.30
2022-11-06T21:00:02.292Z,49.40
2022-11-06T21:02:30.369Z,49.20
2022-11-06T21:04:58.353Z,49.30
2022-11-06T21:07:26.288Z,49.40
2022-11-06T21:09:54.266Z,49.20
2022-11-06T21:12:24.130Z,49.30
2022-11-06T21:14:52.153Z,49.10
2022-11-06T21:17:20.567Z,49.20
2022-11-06T21:19:48.731Z,49.20
2022-11-06T21:22:16.855Z,49.10
2022-11-06T21:24:44.701Z,49.10
2022-11-06T21:27:12.630Z,49.10
2022-11-06T21:29:41.964Z,49.30
2022-11-06T21:32:09.961Z,49.00
2022-11-06T21:34:37.982Z,49.40
2022-11-06T21:37:05.954Z,49.10
2022-11-06T21:39:36.580Z,49.20
2022-11-06T21:42:05.092Z,49.20
2022-11-06T21:44:32.991Z,49.30
2022-11-06T21:47:02.401Z,49.10
2022-11-06T21:49:30.362Z,49.10
2022-11-06T21:52:18.718Z,49.10
2022-11-06T21:55:04.137Z,49.10
2022-11-06T21:57:32.035Z,49.10
2022-11-06T22:00:00.066Z,49.20
2022-11-06T22:02:30.115Z,49.00
2022-11-06T22:04:58.198Z,49.00
2022-11-06T22:07:26.611Z,49.20
2022-11-06T22:09:54.542Z,49.10
2022-11-06T22:12:22.586Z,49.00
2022-11-06T22:14:50.511Z,49.00
2022-11-06T22:17:18.421Z,48.90
2022-11-06T22:19:47.755Z,49.00
2022-11-06T22:22:15.502Z,49.00
2022-11-06T22:24:43.274Z,49.00
2022-11-06T22:27:11.123Z,49.00
2022-11-06T22:29:39.309Z,49.10
2022-11-06T22:32:07.711Z,49.00
2022-11-06T22:34:35.663Z,48.90
2022-11-06T22:37:05.092Z,48.90
2022-11-06T22:39:33.122Z,49.00
2022-11-06T22:42:00.869Z,49.00
2022-11-06T22:44:29.347Z,48.90
2022-11-06T22:46:57.310Z,49.00
2022-11-06T22:49:25.329Z,49.10
2022-11-06T22:51:53.278Z,49.00
2022-11-06T22:54:22.730Z,49.30
2022-11-06T22:56:50.609Z,49.40
2022-11-06T22:59:20.453Z,49.30
2022-11-06T23:01:48.573Z,49.30
2022-11-06T23:04:16.588Z,49.30
2022-11-06T23:06:45.349Z,49.40
2022-11-06T23:09:13.515Z,49.50
2022-11-06T23:11:42.966Z,49.60
2022-11-06T23:14:10.875Z,49.50
2022-11-06T23:16:56.453Z,49.60
2022-11-06T23:19:24.542Z,49.60
2022-11-06T23:21:52.530Z,49.60
2022-11-06T23:24:20.924Z,49.80
2022-11-06T23:26:50.792Z,49.90
2022-11-06T23:29:18.763Z,50.10
2022-11-06T23:31:46.776Z,50.00
2022-11-06T23:34:14.727Z,50.00
2022-11-06T23:36:43.014Z,50.00
2022-11-06T23:39:10.932Z,50.00
2022-11-06T23:41:46.439Z,50.10
2022-11-06T23:44:33.507Z,50.20
2022-11-06T23:47:01.866Z,50.20
2022-11-06T23:49:30.880Z,50.30
2022-11-06T23:51:58.858Z,50.30
2022-11-06T23:54:26.764Z,50.30
2022-11-06T23:56:54.789Z,50.40
2022-11-06T23:59:24.350Z,50.30
